sensor_id;sensor_type;location;lat;lon;timestamp;pressure;altitude;pressure_sealevel;temperature;humidity
5053;BME280;2545;50.892;5.740;2023-11-19T00:01:34;56406.22;;;-142.21;100.00
5053;BME280;2545;50.892;5.740;2023-11-19T00:03:59;56398.38;;;-142.21;100.00
5053;BME280;2545;50.892;5.740;2023-11-19T00:06:25;56402.31;;;-142.21;100.00
5053;BME280;2545;50.892;5.740;2023-11-19T00:08:50;56414.06;;;-142.21;100.00
5053;BME280;2545;50.892;5.740;2023-11-19T00:11:16;56398.38;;;-142.21;100.00
5053;BME280;2545;50.892;5.740;2023-11-19T00:13:41;56408.19;;;-142.21;100.00
5053;BME280;2545;50.892;5.740;2023-11-19T00:16:08;56408.19;;;-142.21;100.00
5053;BME280;2545;50.892;5.740;2023-11-19T00:18:35;56368.97;;;-142.21;100.00
5053;BME280;2545;50.892;5.740;2023-11-19T00:21:01;56418.00;;;-142.21;100.00
5053;BME280;2545;50.892;5.740;2023-11-19T00:23:27;56398.38;;;-142.21;100.00
5053;BME280;2545;50.892;5.740;2023-11-19T00:25:52;56365.06;;;-142.21;100.00
5053;BME280;2545;50.892;5.740;2023-11-19T00:28:18;56410.16;;;-142.21;100.00
5053;BME280;2545;50.892;5.740;2023-11-19T00:30:43;56418.00;;;-142.21;100.00
5053;BME280;2545;50.892;5.740;2023-11-19T00:33:08;56406.22;;;-142.21;100.00
5053;BME280;2545;50.892;5.740;2023-11-19T00:35:34;56376.81;;;-142.21;100.00
5053;BME280;2545;50.892;5.740;2023-11-19T00:37:59;56400.34;;;-142.21;100.00
5053;BME280;2545;50.892;5.740;2023-11-19T00:40:25;56376.81;;;-142.21;100.00
5053;BME280;2545;50.892;5.740;2023-11-19T00:42:51;56392.50;;;-142.21;100.00
5053;BME280;2545;50.892;5.740;2023-11-19T00:45:16;56386.63;;;-142.21;100.00
5053;BME280;2545;50.892;5.740;2023-11-19T00:47:42;56433.69;;;-142.21;100.00
5053;BME280;2545;50.892;5.740;2023-11-19T00:50:08;56367.00;;;-142.21;100.00
5053;BME280;2545;50.892;5.740;2023-11-19T00:52:38;56370.94;;;-142.21;100.00
5053;BME280;2545;50.892;5.740;2023-11-19T00:55:04;56437.59;;;-142.21;100.00
5053;BME280;2545;50.892;5.740;2023-11-19T00:57:30;56390.53;;;-142.21;100.00
5053;BME280;2545;50.892;5.740;2023-11-19T00:59:58;56400.34;;;-142.21;100.00
5053;BME280;2545;50.892;5.740;2023-11-19T01:02:24;56429.75;;;-142.21;100.00
5053;BME280;2545;50.892;5.740;2023-11-19T01:04:49;56418.00;;;-142.21;100.00
5053;BME280;2545;50.892;5.740;2023-11-19T01:07:15;56396.44;;;-142.21;100.00
5053;BME280;2545;50.892;5.740;2023-11-19T01:09:44;56439.56;;;-142.21;100.00
5053;BME280;2545;50.892;5.740;2023-11-19T01:12:09;56421.91;;;-142.21;100.00
5053;BME280;2545;50.892;5.740;2023-11-19T01:14:35;56384.66;;;-142.21;100.00
5053;BME280;2545;50.892;5.740;2023-11-19T01:17:01;56392.50;;;-142.21;100.00
5053;BME280;2545;50.892;5.740;2023-11-19T01:19:27;56327.78;;;-142.21;100.00
5053;BME280;2545;50.892;5.740;2023-11-19T01:21:54;56382.69;;;-142.21;100.00
5053;BME280;2545;50.892;5.740;2023-11-19T01:24:20;56361.13;;;-142.21;100.00
5053;BME280;2545;50.892;5.740;2023-11-19T01:26:46;56408.19;;;-142.21;100.00
5053;BME280;2545;50.892;5.740;2023-11-19T01:29:14;56408.19;;;-142.21;100.00
5053;BME280;2545;50.892;5.740;2023-11-19T01:31:45;56419.97;;;-142.21;100.00
5053;BME280;2545;50.892;5.740;2023-11-19T01:34:10;56380.75;;;-142.21;100.00
5053;BME280;2545;50.892;5.740;2023-11-19T01:36:36;56382.69;;;-142.21;100.00
5053;BME280;2545;50.892;5.740;2023-11-19T01:39:02;56398.38;;;-142.21;100.00
5053;BME280;2545;50.892;5.740;2023-11-19T01:41:29;56447.41;;;-142.21;100.00
5053;BME280;2545;50.892;5.740;2023-11-19T01:43:55;56384.66;;;-142.21;100.00
5053;BME280;2545;50.892;5.740;2023-11-19T01:46:20;56374.84;;;-142.21;100.00
5053;BME280;2545;50.892;5.740;2023-11-19T01:48:46;56396.44;;;-142.21;100.00
5053;BME280;2545;50.892;5.740;2023-11-19T01:51:12;56394.47;;;-142.21;100.00
5053;BME280;2545;50.892;5.740;2023-11-19T01:53:42;56374.84;;;-142.21;100.00
5053;BME280;2545;50.892;5.740;2023-11-19T01:56:09;56412.13;;;-142.21;100.00
5053;BME280;2545;50.892;5.740;2023-11-19T01:58:36;56404.28;;;-142.21;100.00
5053;BME280;2545;50.892;5.740;2023-11-19T02:01:02;56410.16;;;-142.21;100.00
5053;BME280;2545;50.892;5.740;2023-11-19T02:03:31;56400.34;;;-142.21;100.00
5053;BME280;2545;50.892;5.740;2023-11-19T02:05:56;56380.75;;;-142.21;100.00
5053;BME280;2545;50.892;5.740;2023-11-19T02:08:23;56378.78;;;-142.21;100.00
5053;BME280;2545;50.892;5.740;2023-11-19T02:10:48;56390.53;;;-142.21;100.00
5053;BME280;2545;50.892;5.740;2023-11-19T02:13:13;56386.63;;;-142.21;100.00
5053;BME280;2545;50.892;5.740;2023-11-19T02:15:40;56363.09;;;-142.21;100.00
5053;BME280;2545;50.892;5.740;2023-11-19T02:18:20;56402.31;;;-142.21;100.00
5053;BME280;2545;50.892;5.740;2023-11-19T02:20:50;56388.59;;;-142.21;100.00
5053;BME280;2545;50.892;5.740;2023-11-19T02:23:15;56414.06;;;-142.21;100.00
5053;BME280;2545;50.892;5.740;2023-11-19T02:25:42;56423.88;;;-142.21;100.00
5053;BME280;2545;50.892;5.740;2023-11-19T02:28:08;56382.69;;;-142.21;100.00
5053;BME280;2545;50.892;5.740;2023-11-19T02:30:37;56333.69;;;-142.21;100.00
5053;BME280;2545;50.892;5.740;2023-11-19T02:33:02;56382.69;;;-142.21;100.00
5053;BME280;2545;50.892;5.740;2023-11-19T02:35:31;56382.69;;;-142.21;100.00
5053;BME280;2545;50.892;5.740;2023-11-19T02:37:57;56376.81;;;-142.21;100.00
5053;BME280;2545;50.892;5.740;2023-11-19T02:40:24;56406.22;;;-142.21;100.00
5053;BME280;2545;50.892;5.740;2023-11-19T02:42:50;56384.66;;;-142.21;100.00
5053;BME280;2545;50.892;5.740;2023-11-19T02:45:16;56382.69;;;-142.21;100.00
5053;BME280;2545;50.892;5.740;2023-11-19T02:47:41;56359.16;;;-142.21;100.00
5053;BME280;2545;50.892;5.740;2023-11-19T02:50:08;56414.06;;;-142.21;100.00
5053;BME280;2545;50.892;5.740;2023-11-19T02:52:43;56398.38;;;-142.21;100.00
5053;BME280;2545;50.892;5.740;2023-11-19T02:55:11;56419.97;;;-142.21;100.00
5053;BME280;2545;50.892;5.740;2023-11-19T02:57:40;56380.75;;;-142.21;100.00
5053;BME280;2545;50.892;5.740;2023-11-19T03:00:13;56388.59;;;-142.21;100.00
5053;BME280;2545;50.892;5.740;2023-11-19T03:02:40;56368.97;;;-142.21;100.00
5053;BME280;2545;50.892;5.740;2023-11-19T03:05:14;56400.34;;;-142.21;100.00
5053;BME280;2545;50.892;5.740;2023-11-19T03:07:43;56368.97;;;-142.21;100.00
5053;BME280;2545;50.892;5.740;2023-11-19T03:10:10;56376.81;;;-142.21;100.00
5053;BME280;2545;50.892;5.740;2023-11-19T03:12:39;56386.63;;;-142.21;100.00
5053;BME280;2545;50.892;5.740;2023-11-19T03:15:05;56382.69;;;-142.21;100.00
5053;BME280;2545;50.892;5.740;2023-11-19T03:17:30;56388.59;;;-142.21;100.00
5053;BME280;2545;50.892;5.740;2023-11-19T03:19:56;56365.06;;;-142.21;100.00
5053;BME280;2545;50.892;5.740;2023-11-19T03:22:21;56363.09;;;-142.21;100.00
5053;BME280;2545;50.892;5.740;2023-11-19T03:24:47;56388.59;;;-142.21;100.00
5053;BME280;2545;50.892;5.740;2023-11-19T03:27:12;56400.34;;;-142.21;100.00
5053;BME280;2545;50.892;5.740;2023-11-19T03:29:37;56410.16;;;-142.21;100.00
5053;BME280;2545;50.892;5.740;2023-11-19T03:32:04;56396.44;;;-142.21;100.00
5053;BME280;2545;50.892;5.740;2023-11-19T03:34:29;56390.53;;;-142.21;100.00
5053;BME280;2545;50.892;5.740;2023-11-19T03:36:55;56419.97;;;-142.21;100.00
5053;BME280;2545;50.892;5.740;2023-11-19T03:39:21;56378.78;;;-142.21;100.00
5053;BME280;2545;50.892;5.740;2023-11-19T03:41:49;56378.78;;;-142.21;100.00
5053;BME280;2545;50.892;5.740;2023-11-19T03:44:15;56378.78;;;-142.21;100.00
5053;BME280;2545;50.892;5.740;2023-11-19T03:46:40;56363.09;;;-142.21;100.00
5053;BME280;2545;50.892;5.740;2023-11-19T03:49:05;56384.66;;;-142.21;100.00
5053;BME280;2545;50.892;5.740;2023-11-19T03:51:32;56382.69;;;-142.21;100.00
5053;BME280;2545;50.892;5.740;2023-11-19T03:53:57;56408.19;;;-142.21;100.00
5053;BME280;2545;50.892;5.740;2023-11-19T03:56:24;56394.47;;;-142.21;100.00
5053;BME280;2545;50.892;5.740;2023-11-19T03:58:49;56388.59;;;-142.21;100.00
5053;BME280;2545;50.892;5.740;2023-11-19T04:01:15;56339.56;;;-142.21;100.00
5053;BME280;2545;50.892;5.740;2023-11-19T04:03:40;56394.47;;;-142.21;100.00
5053;BME280;2545;50.892;5.740;2023-11-19T04:06:06;56412.13;;;-142.21;100.00
5053;BME280;2545;50.892;5.740;2023-11-19T04:08:31;56382.69;;;-142.21;100.00
5053;BME280;2545;50.892;5.740;2023-11-19T04:10:57;56388.59;;;-142.21;100.00
5053;BME280;2545;50.892;5.740;2023-11-19T04:13:22;56363.09;;;-142.21;100.00
5053;BME280;2545;50.892;5.740;2023-11-19T04:15:49;56384.66;;;-142.21;100.00
5053;BME280;2545;50.892;5.740;2023-11-19T04:18:15;56349.38;;;-142.21;100.00
5053;BME280;2545;50.892;5.740;2023-11-19T04:20:41;56396.44;;;-142.21;100.00
5053;BME280;2545;50.892;5.740;2023-11-19T04:23:10;56410.16;;;-142.21;100.00
5053;BME280;2545;50.892;5.740;2023-11-19T04:25:36;56404.28;;;-142.21;100.00
5053;BME280;2545;50.892;5.740;2023-11-19T04:28:01;56367.00;;;-142.21;100.00
5053;BME280;2545;50.892;5.740;2023-11-19T04:30:27;56376.81;;;-142.21;100.00
5053;BME280;2545;50.892;5.740;2023-11-19T04:32:53;56365.06;;;-142.21;100.00
5053;BME280;2545;50.892;5.740;2023-11-19T04:35:18;56394.47;;;-142.21;100.00
5053;BME280;2545;50.892;5.740;2023-11-19T04:37:44;56402.31;;;-142.21;100.00
5053;BME280;2545;50.892;5.740;2023-11-19T04:40:10;56406.22;;;-142.21;100.00
5053;BME280;2545;50.892;5.740;2023-11-19T04:42:37;56351.31;;;-142.21;100.00
5053;BME280;2545;50.892;5.740;2023-11-19T04:45:05;56392.50;;;-142.21;100.00
5053;BME280;2545;50.892;5.740;2023-11-19T04:47:32;56365.06;;;-142.21;100.00
5053;BME280;2545;50.892;5.740;2023-11-19T04:49:57;56370.94;;;-142.21;100.00
5053;BME280;2545;50.892;5.740;2023-11-19T04:52:23;56357.22;;;-142.21;100.00
5053;BME280;2545;50.892;5.740;2023-11-19T04:54:48;56370.94;;;-142.21;100.00
5053;BME280;2545;50.892;5.740;2023-11-19T04:57:13;56380.75;;;-142.21;100.00
5053;BME280;2545;50.892;5.740;2023-11-19T04:59:39;56367.00;;;-142.21;100.00
5053;BME280;2545;50.892;5.740;2023-11-19T05:02:04;56386.63;;;-142.21;100.00
5053;BME280;2545;50.892;5.740;2023-11-19T05:04:31;56331.72;;;-142.21;100.00
5053;BME280;2545;50.892;5.740;2023-11-19T05:06:56;56406.22;;;-142.21;100.00
5053;BME280;2545;50.892;5.740;2023-11-19T05:09:21;56380.75;;;-142.21;100.00
5053;BME280;2545;50.892;5.740;2023-11-19T05:11:47;56363.09;;;-142.21;100.00
5053;BME280;2545;50.892;5.740;2023-11-19T05:14:13;56331.72;;;-142.21;100.00
5053;BME280;2545;50.892;5.740;2023-11-19T05:16:40;56351.31;;;-142.21;100.00
5053;BME280;2545;50.892;5.740;2023-11-19T05:19:06;56357.22;;;-142.21;100.00
5053;BME280;2545;50.892;5.740;2023-11-19T05:21:32;56414.06;;;-142.21;100.00
5053;BME280;2545;50.892;5.740;2023-11-19T05:23:57;56359.16;;;-142.21;100.00
5053;BME280;2545;50.892;5.740;2023-11-19T05:26:23;56384.66;;;-142.21;100.00
5053;BME280;2545;50.892;5.740;2023-11-19T05:28:49;56390.53;;;-142.21;100.00
5053;BME280;2545;50.892;5.740;2023-11-19T05:31:16;56388.59;;;-142.21;100.00
5053;BME280;2545;50.892;5.740;2023-11-19T05:33:42;56416.03;;;-142.21;100.00
5053;BME280;2545;50.892;5.740;2023-11-19T05:36:08;56402.31;;;-142.21;100.00
5053;BME280;2545;50.892;5.740;2023-11-19T05:38:35;56380.75;;;-142.21;100.00
5053;BME280;2545;50.892;5.740;2023-11-19T05:41:00;56386.63;;;-142.21;100.00
5053;BME280;2545;50.892;5.740;2023-11-19T05:43:26;56370.94;;;-142.21;100.00
5053;BME280;2545;50.892;5.740;2023-11-19T05:45:51;56370.94;;;-142.21;100.00
5053;BME280;2545;50.892;5.740;2023-11-19T05:48:16;56359.16;;;-142.21;100.00
5053;BME280;2545;50.892;5.740;2023-11-19T05:50:42;56372.91;;;-142.21;100.00
5053;BME280;2545;50.892;5.740;2023-11-19T05:53:07;56406.22;;;-142.21;98.91
5053;BME280;2545;50.892;5.740;2023-11-19T05:55:36;56359.16;;;-142.21;100.00
5053;BME280;2545;50.892;5.740;2023-11-19T05:58:02;56329.75;;;-142.21;99.72
5053;BME280;2545;50.892;5.740;2023-11-19T06:00:29;56402.31;;;-142.21;99.35
5053;BME280;2545;50.892;5.740;2023-11-19T06:02:55;56382.69;;;-142.21;99.46
5053;BME280;2545;50.892;5.740;2023-11-19T06:05:21;56378.78;;;-142.21;99.33
5053;BME280;2545;50.892;5.740;2023-11-19T06:07:46;56345.44;;;-142.21;99.44
5053;BME280;2545;50.892;5.740;2023-11-19T06:10:11;56376.81;;;-142.21;99.49
5053;BME280;2545;50.892;5.740;2023-11-19T06:12:39;56390.53;;;-142.21;99.63
5053;BME280;2545;50.892;5.740;2023-11-19T06:15:06;56406.22;;;-142.21;99.51
5053;BME280;2545;50.892;5.740;2023-11-19T06:17:33;56359.16;;;-142.21;100.00
5053;BME280;2545;50.892;5.740;2023-11-19T06:19:59;56384.66;;;-142.21;100.00
5053;BME280;2545;50.892;5.740;2023-11-19T06:22:24;56372.91;;;-142.21;100.00
5053;BME280;2545;50.892;5.740;2023-11-19T06:24:49;56394.47;;;-142.21;100.00
5053;BME280;2545;50.892;5.740;2023-11-19T06:27:15;56368.97;;;-142.21;100.00
5053;BME280;2545;50.892;5.740;2023-11-19T06:29:40;56398.38;;;-142.21;100.00
5053;BME280;2545;50.892;5.740;2023-11-19T06:32:06;56376.81;;;-142.21;100.00
5053;BME280;2545;50.892;5.740;2023-11-19T06:34:33;56374.84;;;-142.21;100.00
5053;BME280;2545;50.892;5.740;2023-11-19T06:36:59;56386.63;;;-142.21;100.00
5053;BME280;2545;50.892;5.740;2023-11-19T06:39:24;56359.16;;;-142.21;100.00
5053;BME280;2545;50.892;5.740;2023-11-19T06:41:50;56398.38;;;-142.21;100.00
5053;BME280;2545;50.892;5.740;2023-11-19T06:44:15;56388.59;;;-142.21;100.00
5053;BME280;2545;50.892;5.740;2023-11-19T06:46:41;56351.31;;;-142.21;100.00
5053;BME280;2545;50.892;5.740;2023-11-19T06:49:06;56384.66;;;-142.21;100.00
5053;BME280;2545;50.892;5.740;2023-11-19T06:51:34;56416.03;;;-142.21;100.00
5053;BME280;2545;50.892;5.740;2023-11-19T06:54:00;56386.63;;;-142.21;100.00
5053;BME280;2545;50.892;5.740;2023-11-19T06:56:26;56384.66;;;-142.21;100.00
5053;BME280;2545;50.892;5.740;2023-11-19T06:58:52;56394.47;;;-142.21;100.00
5053;BME280;2545;50.892;5.740;2023-11-19T07:01:18;56376.81;;;-142.21;98.83
5053;BME280;2545;50.892;5.740;2023-11-19T07:03:47;56386.63;;;-142.21;98.95
5053;BME280;2545;50.892;5.740;2023-11-19T07:06:13;56365.06;;;-142.21;98.05
5053;BME280;2545;50.892;5.740;2023-11-19T07:08:40;56394.47;;;-142.21;98.87
5053;BME280;2545;50.892;5.740;2023-11-19T07:11:06;56351.31;;;-142.21;97.36
5053;BME280;2545;50.892;5.740;2023-11-19T07:13:31;56384.66;;;-142.21;96.56
5053;BME280;2545;50.892;5.740;2023-11-19T07:15:57;56353.28;;;-142.21;97.36
5053;BME280;2545;50.892;5.740;2023-11-19T07:18:22;56425.84;;;-142.21;97.01
5053;BME280;2545;50.892;5.740;2023-11-19T07:20:48;56345.44;;;-142.21;94.33
5053;BME280;2545;50.892;5.740;2023-11-19T07:23:13;56355.25;;;-142.21;95.92
5053;BME280;2545;50.892;5.740;2023-11-19T07:25:42;56361.13;;;-142.21;95.70
5053;BME280;2545;50.892;5.740;2023-11-19T07:28:08;56357.22;;;-142.21;94.34
5053;BME280;2545;50.892;5.740;2023-11-19T07:30:35;56386.63;;;-142.21;94.85
5053;BME280;2545;50.892;5.740;2023-11-19T07:33:01;56386.63;;;-142.21;94.91
5053;BME280;2545;50.892;5.740;2023-11-19T07:35:29;56382.69;;;-142.21;95.75
5053;BME280;2545;50.892;5.740;2023-11-19T07:37:56;56363.09;;;-142.21;96.86
5053;BME280;2545;50.892;5.740;2023-11-19T07:40:21;56361.13;;;-142.21;93.95
5053;BME280;2545;50.892;5.740;2023-11-19T07:42:46;56370.94;;;-142.21;93.57
5053;BME280;2545;50.892;5.740;2023-11-19T07:45:12;56347.41;;;-142.21;91.95
5053;BME280;2545;50.892;5.740;2023-11-19T07:47:37;56363.09;;;-142.21;91.24
5053;BME280;2545;50.892;5.740;2023-11-19T07:50:03;56372.91;;;-142.21;92.02
5053;BME280;2545;50.892;5.740;2023-11-19T07:52:29;56414.06;;;-142.21;92.63
5053;BME280;2545;50.892;5.740;2023-11-19T07:54:55;56339.56;;;-142.21;92.12
5053;BME280;2545;50.892;5.740;2023-11-19T07:57:20;56370.94;;;-142.21;92.85
5053;BME280;2545;50.892;5.740;2023-11-19T07:59:46;56359.16;;;-142.21;93.16
5053;BME280;2545;50.892;5.740;2023-11-19T08:02:12;56378.78;;;-142.21;91.49
5053;BME280;2545;50.892;5.740;2023-11-19T08:04:37;56406.22;;;-142.21;91.68
5053;BME280;2545;50.892;5.740;2023-11-19T08:07:05;56333.69;;;-142.21;91.23
5053;BME280;2545;50.892;5.740;2023-11-19T08:09:30;56400.34;;;-142.21;90.46
5053;BME280;2545;50.892;5.740;2023-11-19T08:11:56;56402.31;;;-142.21;90.13
5053;BME280;2545;50.892;5.740;2023-11-19T08:14:21;56365.06;;;-142.21;90.24
5053;BME280;2545;50.892;5.740;2023-11-19T08:16:46;56378.78;;;-142.21;89.35
5053;BME280;2545;50.892;5.740;2023-11-19T08:19:12;56398.38;;;-142.21;89.99
5053;BME280;2545;50.892;5.740;2023-11-19T08:21:37;56382.69;;;-142.21;89.55
5053;BME280;2545;50.892;5.740;2023-11-19T08:24:03;56363.09;;;-142.21;89.53
5053;BME280;2545;50.892;5.740;2023-11-19T08:26:29;56370.94;;;-142.21;86.74
5053;BME280;2545;50.892;5.740;2023-11-19T08:28:54;56368.97;;;-142.21;87.92
5053;BME280;2545;50.892;5.740;2023-11-19T08:31:19;56363.09;;;-142.21;89.27
5053;BME280;2545;50.892;5.740;2023-11-19T08:33:45;56374.84;;;-142.21;86.82
5053;BME280;2545;50.892;5.740;2023-11-19T08:36:19;56347.41;;;-142.21;86.58
5053;BME280;2545;50.892;5.740;2023-11-19T08:38:45;56388.59;;;-142.21;87.57
5053;BME280;2545;50.892;5.740;2023-11-19T08:41:11;56384.66;;;-142.21;86.86
5053;BME280;2545;50.892;5.740;2023-11-19T08:43:37;56378.78;;;-142.21;86.11
5053;BME280;2545;50.892;5.740;2023-11-19T08:46:03;56370.94;;;-142.21;87.67
5053;BME280;2545;50.892;5.740;2023-11-19T08:48:29;56363.09;;;-142.21;87.09
5053;BME280;2545;50.892;5.740;2023-11-19T08:50:54;56367.00;;;-142.21;85.46
5053;BME280;2545;50.892;5.740;2023-11-19T08:53:20;56370.94;;;-142.21;86.10
5053;BME280;2545;50.892;5.740;2023-11-19T08:55:46;56386.63;;;-142.21;87.43
5053;BME280;2545;50.892;5.740;2023-11-19T08:58:11;56410.16;;;-142.21;87.35
5053;BME280;2545;50.892;5.740;2023-11-19T09:00:36;56333.69;;;-142.21;84.88
5053;BME280;2545;50.892;5.740;2023-11-19T09:03:02;56337.59;;;-142.21;86.20
5053;BME280;2545;50.892;5.740;2023-11-19T09:05:27;56380.75;;;-142.21;85.06
5053;BME280;2545;50.892;5.740;2023-11-19T09:07:53;56388.59;;;-142.21;86.04
5053;BME280;2545;50.892;5.740;2023-11-19T09:10:18;56367.00;;;-142.21;85.54
5053;BME280;2545;50.892;5.740;2023-11-19T09:12:43;56380.75;;;-142.21;84.40
5053;BME280;2545;50.892;5.740;2023-11-19T09:15:09;56355.25;;;-142.21;83.42
5053;BME280;2545;50.892;5.740;2023-11-19T09:17:35;56359.16;;;-142.21;83.03
5053;BME280;2545;50.892;5.740;2023-11-19T09:20:01;56363.09;;;-142.21;84.93
5053;BME280;2545;50.892;5.740;2023-11-19T09:22:26;56367.00;;;-142.21;85.58
5053;BME280;2545;50.892;5.740;2023-11-19T09:24:51;56421.91;;;-142.21;84.23
5053;BME280;2545;50.892;5.740;2023-11-19T09:27:17;56404.28;;;-142.21;84.43
5053;BME280;2545;50.892;5.740;2023-11-19T09:29:42;56361.13;;;-142.21;83.75
5053;BME280;2545;50.892;5.740;2023-11-19T09:32:08;56347.41;;;-142.21;83.29
5053;BME280;2545;50.892;5.740;2023-11-19T09:34:33;56343.47;;;-142.21;82.95
5053;BME280;2545;50.892;5.740;2023-11-19T09:36:59;56388.59;;;-142.21;83.21
5053;BME280;2545;50.892;5.740;2023-11-19T09:39:24;56376.81;;;-142.21;81.42
5053;BME280;2545;50.892;5.740;2023-11-19T09:41:51;56333.69;;;-142.21;82.04
5053;BME280;2545;50.892;5.740;2023-11-19T09:44:16;56367.00;;;-142.21;83.68
5053;BME280;2545;50.892;5.740;2023-11-19T09:46:43;56406.22;;;-142.21;80.39
5053;BME280;2545;50.892;5.740;2023-11-19T09:49:10;56317.97;;;-142.21;81.87
5053;BME280;2545;50.892;5.740;2023-11-19T09:51:35;56353.28;;;-142.21;81.03
5053;BME280;2545;50.892;5.740;2023-11-19T09:54:02;56335.63;;;-142.21;80.13
5053;BME280;2545;50.892;5.740;2023-11-19T09:56:29;56361.13;;;-142.21;80.13
5053;BME280;2545;50.892;5.740;2023-11-19T09:58:55;56388.59;;;-142.21;79.69
5053;BME280;2545;50.892;5.740;2023-11-19T10:01:20;56333.69;;;-142.21;79.39
5053;BME280;2545;50.892;5.740;2023-11-19T10:03:47;56378.78;;;-142.21;79.78
5053;BME280;2545;50.892;5.740;2023-11-19T10:06:13;56335.63;;;-142.21;80.34
5053;BME280;2545;50.892;5.740;2023-11-19T10:08:39;56365.06;;;-142.21;82.88
5053;BME280;2545;50.892;5.740;2023-11-19T10:11:08;56365.06;;;-142.21;86.31
5053;BME280;2545;50.892;5.740;2023-11-19T10:13:37;56335.63;;;-142.21;89.10
5053;BME280;2545;50.892;5.740;2023-11-19T10:16:08;56374.84;;;-142.21;88.13
5053;BME280;2545;50.892;5.740;2023-11-19T10:18:34;56390.53;;;-142.21;85.69
5053;BME280;2545;50.892;5.740;2023-11-19T10:21:04;56345.44;;;-142.21;84.91
5053;BME280;2545;50.892;5.740;2023-11-19T10:23:30;56359.16;;;-142.21;83.09
5053;BME280;2545;50.892;5.740;2023-11-19T10:26:03;56343.47;;;-142.21;80.03
5053;BME280;2545;50.892;5.740;2023-11-19T10:28:39;56374.84;;;-142.21;78.01
5053;BME280;2545;50.892;5.740;2023-11-19T10:31:05;56372.91;;;-142.21;79.64
5053;BME280;2545;50.892;5.740;2023-11-19T10:33:30;56372.91;;;-142.21;78.85
5053;BME280;2545;50.892;5.740;2023-11-19T10:35:57;56374.84;;;-142.21;77.99
5053;BME280;2545;50.892;5.740;2023-11-19T10:38:23;56374.84;;;-142.21;77.88
5053;BME280;2545;50.892;5.740;2023-11-19T10:40:50;56359.16;;;-142.21;75.88
5053;BME280;2545;50.892;5.740;2023-11-19T10:43:16;56368.97;;;-142.21;73.42
5053;BME280;2545;50.892;5.740;2023-11-19T10:45:43;56359.16;;;-142.21;73.38
5053;BME280;2545;50.892;5.740;2023-11-19T10:48:08;56314.06;;;-142.21;73.30
5053;BME280;2545;50.892;5.740;2023-11-19T10:50:39;56374.84;;;-142.21;70.75
5053;BME280;2545;50.892;5.740;2023-11-19T10:53:06;56368.97;;;-142.21;69.40
5053;BME280;2545;50.892;5.740;2023-11-19T10:55:34;56310.13;;;-142.21;72.58
5053;BME280;2545;50.892;5.740;2023-11-19T10:58:04;56339.56;;;-142.21;73.01
5053;BME280;2545;50.892;5.740;2023-11-19T11:00:47;56341.53;;;-142.21;73.65
5053;BME280;2545;50.892;5.740;2023-11-19T11:03:18;56359.16;;;-142.21;73.57
5053;BME280;2545;50.892;5.740;2023-11-19T11:05:46;56376.81;;;-142.21;71.71
5053;BME280;2545;50.892;5.740;2023-11-19T11:08:12;56378.78;;;-142.21;73.24
5053;BME280;2545;50.892;5.740;2023-11-19T11:10:44;56363.09;;;-142.21;71.58
5053;BME280;2545;50.892;5.740;2023-11-19T11:13:11;56365.06;;;-142.21;74.03
5053;BME280;2545;50.892;5.740;2023-11-19T11:15:38;56317.97;;;-142.21;73.53
5053;BME280;2545;50.892;5.740;2023-11-19T11:18:06;56321.91;;;-142.21;74.16
5053;BME280;2545;50.892;5.740;2023-11-19T11:20:33;56310.13;;;-142.21;74.39
5053;BME280;2545;50.892;5.740;2023-11-19T11:25:53;56317.97;;;-142.21;70.02
5053;BME280;2545;50.892;5.740;2023-11-19T11:28:48;56363.09;;;-142.21;72.59
5053;BME280;2545;50.892;5.740;2023-11-19T11:36:49;56351.31;;;-142.21;76.07
5053;BME280;2545;50.892;5.740;2023-11-19T11:39:21;56347.41;;;-142.21;74.56
5053;BME280;2545;50.892;5.740;2023-11-19T11:41:47;56353.28;;;-142.21;76.55
5053;BME280;2545;50.892;5.740;2023-11-19T11:44:12;56367.00;;;-142.21;76.65
5053;BME280;2545;50.892;5.740;2023-11-19T11:49:06;56367.00;;;-142.21;76.44
5053;BME280;2545;50.892;5.740;2023-11-19T11:54:30;56386.63;;;-142.21;76.92
5053;BME280;2545;50.892;5.740;2023-11-19T11:57:07;56370.94;;;-142.21;77.08
5053;BME280;2545;50.892;5.740;2023-11-19T11:59:47;56355.25;;;-142.21;78.18
5053;BME280;2545;50.892;5.740;2023-11-19T12:02:15;56353.28;;;-142.21;78.27
5053;BME280;2545;50.892;5.740;2023-11-19T12:04:41;56363.09;;;-142.21;79.00
5053;BME280;2545;50.892;5.740;2023-11-19T12:07:12;56384.66;;;-142.21;78.47
5053;BME280;2545;50.892;5.740;2023-11-19T12:09:46;56392.50;;;-142.21;82.83
5053;BME280;2545;50.892;5.740;2023-11-19T12:12:23;56349.38;;;-142.21;81.56
5053;BME280;2545;50.892;5.740;2023-11-19T12:19:59;56349.38;;;-142.21;78.72
5053;BME280;2545;50.892;5.740;2023-11-19T12:22:25;56341.53;;;-142.21;80.18
5053;BME280;2545;50.892;5.740;2023-11-19T12:24:52;56386.63;;;-142.21;77.42
5053;BME280;2545;50.892;5.740;2023-11-19T12:27:19;56376.81;;;-142.21;76.61
5053;BME280;2545;50.892;5.740;2023-11-19T12:29:47;56357.22;;;-142.21;77.26
5053;BME280;2545;50.892;5.740;2023-11-19T12:32:12;56331.72;;;-142.21;76.00
5053;BME280;2545;50.892;5.740;2023-11-19T12:34:38;56341.53;;;-142.21;73.49
5053;BME280;2545;50.892;5.740;2023-11-19T12:37:04;56339.56;;;-142.21;69.38
5053;BME280;2545;50.892;5.740;2023-11-19T12:39:30;56351.31;;;-142.21;69.26
5053;BME280;2545;50.892;5.740;2023-11-19T12:41:55;56351.31;;;-142.21;66.19
5053;BME280;2545;50.892;5.740;2023-11-19T12:44:22;56363.09;;;-142.21;66.34
5053;BME280;2545;50.892;5.740;2023-11-19T12:47:02;56296.41;;;-142.21;65.91
5053;BME280;2545;50.892;5.740;2023-11-19T12:49:28;56319.94;;;-142.21;61.89
5053;BME280;2545;50.892;5.740;2023-11-19T12:51:54;56361.13;;;-142.21;63.40
5053;BME280;2545;50.892;5.740;2023-11-19T12:54:19;56339.56;;;-142.21;64.97
5053;BME280;2545;50.892;5.740;2023-11-19T12:57:04;56300.34;;;-142.21;66.66
5053;BME280;2545;50.892;5.740;2023-11-19T12:59:30;56304.25;;;-142.21;61.89
5053;BME280;2545;50.892;5.740;2023-11-19T13:01:56;56325.84;;;-142.21;62.21
5053;BME280;2545;50.892;5.740;2023-11-19T13:04:22;56341.53;;;-142.21;64.71
5053;BME280;2545;50.892;5.740;2023-11-19T13:06:49;56323.88;;;-142.21;64.24
5053;BME280;2545;50.892;5.740;2023-11-19T13:09:25;56325.84;;;-142.21;65.41
5053;BME280;2545;50.892;5.740;2023-11-19T13:11:51;56367.00;;;-142.21;70.57